Time;durP1;ratioP1;P1;durP2;ratioP2;P2;SDS_P1;SDS_P2;PMS_P1;PMS_P2;Temp;Humidity;BMP_temperature;BMP_pressure;BME280_temperature;BME280_humidity;BME280_pressure;Samples;Min_cycle;Max_cycle;Signal;HPM_P1;HPM_P2
2023/01/09 00:02:01;;;;;;;77.80;18.80;;;;;5.20;94743.00;;;;8295370;28;20679;-72
2023/01/09 00:06:07;;;;;;;67.33;17.13;;;;;5.20;94731.00;;;;8293337;28;20235;-72
2023/01/09 00:10:41;;;;;;;67.07;18.60;;;;;5.20;94727.00;;;;8294911;28;20251;-72
2023/01/09 00:14:45;;;;;;;63.87;16.97;;;;;5.20;94727.00;;;;8294373;28;20194;-72
2023/01/09 00:18:52;;;;;;;60.73;19.33;;;;;5.20;94710.00;;;;8295201;28;20210;-72
2023/01/09 00:22:55;;;;;;;63.97;17.60;;;;;5.30;94701.00;;;;8294400;28;20207;-72
2023/01/09 00:26:58;;;;;;;61.47;16.70;;;;;5.30;94698.00;;;;8294088;28;20229;-72
2023/01/09 00:31:05;;;;;;;61.57;17.33;;;;;5.30;94710.00;;;;8293981;28;20197;-72
2023/01/09 00:35:13;;;;;;;61.40;16.70;;;;;5.30;94700.00;;;;8294203;28;20194;-72
2023/01/09 00:39:20;;;;;;;60.80;16.90;;;;;5.40;94697.00;;;;8293144;28;20292;-72
2023/01/09 00:43:32;;;;;;;65.03;16.97;;;;;5.40;94697.00;;;;8294150;28;20268;-72
2023/01/09 00:47:38;;;;;;;71.63;17.63;;;;;5.40;94693.00;;;;8294332;28;20540;-72
2023/01/09 00:51:55;;;;;;;62.73;17.50;;;;;5.40;94697.00;;;;8293606;28;20209;-72
2023/01/09 00:56:07;;;;;;;62.10;17.00;;;;;5.50;94684.00;;;;8293651;28;20193;-71
2023/01/09 01:00:45;;;;;;;62.00;16.37;;;;;5.50;94684.00;;;;8292575;28;20197;-72
2023/01/09 01:09:13;;;;;;;58.93;16.90;;;;;5.40;94675.00;;;;8298188;28;20194;-71
2023/01/09 01:13:47;;;;;;;55.00;17.17;;;;;5.40;94676.00;;;;8298621;28;20632;-71
2023/01/09 01:17:50;;;;;;;64.27;16.43;;;;;5.40;94667.00;;;;8301288;28;20205;-71
2023/01/09 01:21:53;;;;;;;62.20;17.97;;;;;5.40;94662.00;;;;8304978;28;20689;-71
2023/01/09 01:26:31;;;;;;;68.17;17.67;;;;;5.40;94691.00;;;;8303158;28;20227;-71
2023/01/09 01:30:39;;;;;;;77.03;17.93;;;;;5.30;94695.00;;;;8304144;28;20198;-71
2023/01/09 01:34:43;;;;;;;69.97;17.33;;;;;5.30;94698.00;;;;8303727;28;20664;-70
2023/01/09 01:38:51;;;;;;;71.20;19.30;;;;;5.20;94680.00;;;;8301747;28;20288;-70
2023/01/09 01:42:57;;;;;;;85.73;19.50;;;;;5.20;94683.00;;;;8298967;28;20200;-70
2023/01/09 01:47:34;;;;;;;80.10;19.67;;;;;5.20;94688.00;;;;8302412;28;20214;-71
2023/01/09 01:51:46;;;;;;;67.53;18.20;;;;;5.20;94676.00;;;;8301995;28;20289;-71
2023/01/09 01:55:58;;;;;;;68.67;18.20;;;;;5.20;94667.00;;;;8301415;28;20198;-70
2023/01/09 02:00:05;;;;;;;60.33;17.33;;;;;5.20;94662.00;;;;8301585;28;20197;-70
2023/01/09 02:04:12;;;;;;;55.87;16.83;;;;;5.20;94657.00;;;;8302286;28;20227;-69
2023/01/09 02:08:19;;;;;;;72.20;18.17;;;;;5.20;94641.00;;;;8301131;28;20284;-69
2023/01/09 02:12:24;;;;;;;67.47;16.93;;;;;5.20;94638.00;;;;8301618;28;20209;-69
2023/01/09 02:17:03;;;;;;;71.00;18.07;;;;;5.20;94643.00;;;;8301796;28;20190;-69
2023/01/09 02:21:12;;;;;;;64.73;17.30;;;;;5.30;94648.00;;;;8301672;28;20218;-69
2023/01/09 02:25:56;;;;;;;69.93;17.33;;;;;5.20;94651.00;;;;8300925;28;20232;-69
2023/01/09 02:30:31;;;;;;;66.70;16.93;;;;;5.20;94658.00;;;;8301119;28;20284;-69
2023/01/09 02:34:42;;;;;;;62.50;18.10;;;;;5.20;94655.00;;;;8301056;28;20300;-69
2023/01/09 02:39:20;;;;;;;57.23;16.37;;;;;5.20;94646.00;;;;8301851;28;20690;-69
2023/01/09 02:43:29;;;;;;;67.80;17.43;;;;;5.20;94643.00;;;;8300375;28;20190;-69
2023/01/09 02:47:40;;;;;;;67.00;17.73;;;;;5.20;94640.00;;;;8301790;28;20269;-69
2023/01/09 02:51:54;;;;;;;57.20;16.93;;;;;5.20;94640.00;;;;8302359;28;20182;-69
2023/01/09 02:56:42;;;;;;;63.73;16.70;;;;;5.20;94629.00;;;;8301096;28;20201;-69
2023/01/09 03:00:57;;;;;;;73.70;18.33;;;;;5.20;94629.00;;;;8287590;28;20243;-69
2023/01/09 03:05:09;;;;;;;69.03;17.83;;;;;5.20;94635.00;;;;8307037;23;20277;-71
2023/01/09 03:09:22;;;;;;;69.50;17.50;;;;;5.20;94622.00;;;;8286992;28;20199;-73
2023/01/09 03:13:30;;;;;;;71.13;16.97;;;;;5.30;94628.00;;;;8286507;28;20986;-73
2023/01/09 03:17:41;;;;;;;68.73;18.07;;;;;5.30;94632.00;;;;8288052;28;20202;-75
2023/01/09 03:21:51;;;;;;;70.83;17.50;;;;;5.30;94623.00;;;;8285416;28;20610;-74
2023/01/09 03:25:55;;;;;;;58.40;17.47;;;;;5.30;94626.00;;;;8287584;28;20323;-74
2023/01/09 03:29:58;;;;;;;72.47;17.90;;;;;5.40;94628.00;;;;8286426;28;20256;-74
2023/01/09 03:34:06;;;;;;;65.67;18.30;;;;;5.40;94621.00;;;;8282919;28;20759;-73
2023/01/09 03:38:14;;;;;;;57.20;17.00;;;;;5.50;94624.00;;;;8274856;28;20200;-75
2023/01/09 03:42:20;;;;;;;64.77;18.03;;;;;5.50;94622.00;;;;8280286;28;20214;-71
2023/01/09 03:46:23;;;;;;;68.40;16.83;;;;;5.50;94632.00;;;;8280679;28;20682;-73
2023/01/09 03:50:26;;;;;;;68.33;17.20;;;;;5.60;94636.00;;;;8281966;28;20186;-74
2023/01/09 03:54:30;;;;;;;66.33;17.70;;;;;5.50;94629.00;;;;8282255;28;20355;-71
2023/01/09 03:58:39;;;;;;;66.30;17.47;;;;;5.50;94633.00;;;;8278630;28;20694;-70
2023/01/09 04:02:42;;;;;;;68.67;18.03;;;;;5.50;94631.00;;;;8275265;28;20229;-73
2023/01/09 04:06:45;;;;;;;60.13;18.40;;;;;5.50;94628.00;;;;8262682;28;20227;-74
2023/01/09 04:10:51;;;;;;;64.70;17.37;;;;;5.50;94629.00;;;;8260123;28;20203;-74
2023/01/09 04:14:55;;;;;;;71.97;19.07;;;;;5.50;94627.00;;;;8274042;28;20640;-77
2023/01/09 04:18:58;;;;;;;61.10;18.03;;;;;5.50;94632.00;;;;8261559;28;20218;-73
2023/01/09 04:23:04;;;;;;;66.00;18.13;;;;;5.40;94641.00;;;;8269114;28;20344;-76
2023/01/09 04:27:07;;;;;;;60.47;18.20;;;;;5.40;94639.00;;;;8279355;28;20329;-73
2023/01/09 04:31:17;;;;;;;76.23;18.37;;;;;5.40;94650.00;;;;8280760;28;20205;-73
2023/01/09 04:35:21;;;;;;;59.30;17.70;;;;;5.30;94652.00;;;;8255638;28;20202;-74
2023/01/09 04:39:24;;;;;;;73.43;18.57;;;;;5.30;94660.00;;;;8264517;28;21205;-77
2023/01/09 04:43:30;;;;;;;59.43;18.27;;;;;5.20;94655.00;;;;8266710;28;20253;-72
2023/01/09 04:47:36;;;;;;;63.80;18.43;;;;;5.20;94650.00;;;;8274684;28;20240;-79
2023/01/09 04:51:39;;;;;;;68.03;19.30;;;;;5.10;94655.00;;;;8275954;28;20206;-74
2023/01/09 04:55:44;;;;;;;71.80;19.23;;;;;5.10;94660.00;;;;8271948;28;20256;-72
2023/01/09 04:59:47;;;;;;;79.13;18.40;;;;;5.00;94669.00;;;;8266952;28;20689;-77
2023/01/09 05:03:54;;;;;;;74.60;20.10;;;;;5.00;94668.00;;;;8283410;28;20233;-75
2023/01/09 05:07:58;;;;;;;225.03;32.57;;;;;5.00;94692.00;;;;8269756;28;20316;-73
2023/01/09 05:12:01;;;;;;;79.43;19.97;;;;;5.00;94692.00;;;;8274123;28;20197;-74
2023/01/09 05:16:04;;;;;;;76.13;18.97;;;;;5.10;94702.00;;;;8279638;28;20268;-73
2023/01/09 05:20:18;;;;;;;93.90;20.77;;;;;5.10;94705.00;;;;8277944;28;20225;-78
2023/01/09 05:24:21;;;;;;;78.43;20.87;;;;;5.10;94708.00;;;;8271975;28;20678;-76
2023/01/09 05:28:24;;;;;;;80.57;19.13;;;;;5.20;94705.00;;;;8275663;28;20767;-76
2023/01/09 05:33:04;;;;;;;72.53;19.87;;;;;5.20;94708.00;;;;8272452;28;20206;-83
2023/01/09 05:37:15;;;;;;;73.30;19.40;;;;;5.20;94710.00;;;;8262753;28;20229;-75
2023/01/09 05:41:25;;;;;;;74.03;20.73;;;;;5.20;94705.00;;;;8277618;28;20202;-83
2023/01/09 05:45:28;;;;;;;53.00;18.17;;;;;5.20;94711.00;;;;8269064;28;20259;-82
2023/01/09 05:49:31;;;;;;;67.53;19.70;;;;;5.20;94720.00;;;;8278706;28;20312;-78
2023/01/09 05:53:38;;;;;;;63.87;17.80;;;;;5.30;94733.00;;;;8274285;28;20623;-76
2023/01/09 05:57:42;;;;;;;57.87;17.27;;;;;5.40;94750.00;;;;8272199;28;20257;-72
2023/01/09 06:01:45;;;;;;;61.73;20.03;;;;;5.50;94761.00;;;;8277444;28;20230;-80
2023/01/09 06:05:50;;;;;;;63.17;19.70;;;;;5.50;94765.00;;;;8276413;28;20210;-75
2023/01/09 06:09:57;;;;;;;59.40;19.20;;;;;5.50;94762.00;;;;8276644;28;20565;-74
2023/01/09 06:14:00;;;;;;;67.07;19.77;;;;;5.60;94764.00;;;;8276910;28;20257;-80
2023/01/09 06:18:06;;;;;;;72.80;20.20;;;;;5.60;94774.00;;;;8269347;28;20249;-75
2023/01/09 06:22:10;;;;;;;62.27;18.50;;;;;5.70;94768.00;;;;8265613;28;20256;-75
2023/01/09 06:26:14;;;;;;;58.10;19.20;;;;;5.70;94763.00;;;;8274206;28;20245;-78
2023/01/09 06:35:52;;;;;;;51.90;17.60;;;;;5.80;94769.00;;;;8295677;28;20200;-70
2023/01/09 06:40:32;;;;;;;42.67;17.07;;;;;6.00;94768.00;;;;8296846;28;20197;-70
2023/01/09 06:45:10;;;;;;;42.63;16.47;;;;;6.10;94765.00;;;;8296480;28;20198;-69
2023/01/09 06:49:44;;;;;;;39.07;13.57;;;;;6.20;94778.00;;;;8295687;28;20222;-69
2023/01/09 06:54:23;;;;;;;42.80;15.17;;;;;6.20;94774.00;;;;8296260;28;20523;-69
2023/01/09 06:59:00;;;;;;;39.87;14.53;;;;;6.20;94782.00;;;;8292981;28;20252;-69
2023/01/09 07:03:35;;;;;;;46.27;15.53;;;;;6.20;94783.00;;;;8295506;28;20239;-70
2023/01/09 07:08:09;;;;;;;39.53;14.87;;;;;6.30;94786.00;;;;8295382;28;20230;-70
2023/01/09 07:12:43;;;;;;;48.70;15.40;;;;;6.30;94791.00;;;;8295489;28;20198;-70
2023/01/09 07:17:24;;;;;;;39.17;13.80;;;;;6.40;94804.00;;;;8295510;28;20271;-70
2023/01/09 07:22:02;;;;;;;35.37;11.20;;;;;6.40;94809.00;;;;8294866;28;20587;-70
2023/01/09 07:26:35;;;;;;;40.73;12.47;;;;;6.50;94816.00;;;;8294971;28;20194;-69
2023/01/09 07:31:22;;;;;;;33.87;12.00;;;;;6.60;94819.00;;;;8294860;28;20198;-70
2023/01/09 07:35:50;;;;;;;24.50;10.00;;;;;6.60;94827.00;;;;8294127;28;20202;-70
2023/01/09 07:40:30;;;;;;;25.77;10.40;;;;;6.70;94832.00;;;;8294606;28;20190;-69
2023/01/09 07:45:09;;;;;;;22.97;8.60;;;;;6.70;94862.00;;;;8294963;28;20203;-68
2023/01/09 07:49:40;;;;;;;15.40;6.10;;;;;6.70;94877.00;;;;8294633;28;20622;-69
2023/01/09 07:54:19;;;;;;;14.57;4.40;;;;;6.80;94895.00;;;;8294244;28;20201;-68
2023/01/09 07:58:53;;;;;;;11.70;3.63;;;;;6.90;94894.00;;;;8299027;28;20225;-70
2023/01/09 08:03:32;;;;;;;8.17;2.63;;;;;6.90;94902.00;;;;8299333;28;20562;-70
2023/01/09 08:08:28;;;;;;;17.33;8.93;;;;;7.00;94909.00;;;;8299109;28;20229;-70
2023/01/09 08:13:05;;;;;;;109.20;57.03;;;;;7.00;94920.00;;;;8300101;28;20248;-70
2023/01/09 08:17:41;;;;;;;16.00;9.30;;;;;6.90;94932.00;;;;8298764;28;20198;-70
2023/01/09 08:22:20;;;;;;;6.93;4.10;;;;;6.90;94941.00;;;;8298944;28;20590;-71
2023/01/09 08:26:54;;;;;;;5.63;3.13;;;;;6.90;94948.00;;;;8298753;28;20206;-71
2023/01/09 08:31:31;;;;;;;11.30;6.27;;;;;7.00;94952.00;;;;8298264;28;20284;-70
2023/01/09 08:36:08;;;;;;;11.57;9.57;;;;;7.00;94975.00;;;;8298697;28;20195;-71
2023/01/09 08:40:46;;;;;;;5.37;2.73;;;;;7.20;94984.00;;;;8297832;28;20284;-71
2023/01/09 08:49:59;;;;;;;44.57;40.07;;;;;7.40;95005.00;;;;8298032;28;20225;-72
2023/01/09 08:54:39;;;;;;;6.07;3.67;;;;;7.40;95016.00;;;;8298306;28;20198;-71
2023/01/09 08:59:11;;;;;;;7.83;2.73;;;;;7.30;95007.00;;;;8298751;28;20251;-72
2023/01/09 09:03:48;;;;;;;2.87;1.73;;;;;7.30;95016.00;;;;8298586;28;20225;-71
2023/01/09 09:08:19;;;;;;;8.83;1.80;;;;;7.30;95027.00;;;;8297038;28;20279;-71
2023/01/09 09:12:57;;;;;;;3.37;1.23;;;;;7.20;95021.00;;;;8298534;28;20648;-71
2023/01/09 09:17:33;;;;;;;4.87;1.40;;;;;7.20;95037.00;;;;8297817;28;20194;-71
2023/01/09 09:22:09;;;;;;;7.47;3.20;;;;;7.20;95034.00;;;;8296349;28;20244;-71
2023/01/09 09:26:48;;;;;;;3.80;1.40;;;;;7.20;95040.00;;;;8297267;28;20256;-71
2023/01/09 09:31:22;;;;;;;3.07;1.57;;;;;7.30;95034.00;;;;8297395;28;20222;-71
2023/01/09 09:36:00;;;;;;;6.73;1.47;;;;;7.30;95039.00;;;;8297803;28;20190;-71
2023/01/09 09:40:41;;;;;;;1.97;1.20;;;;;7.30;95037.00;;;;8302090;28;20659;-71
2023/01/09 09:45:01;;;;;;;7.37;1.70;;;;;7.40;95037.00;;;;8303404;28;20195;-71
2023/01/09 09:49:29;;;;;;;5.83;2.27;;;;;7.40;95041.00;;;;8302027;28;20264;-71
2023/01/09 09:54:00;;;;;;;4.33;1.70;;;;;7.50;95036.00;;;;8303171;28;20547;-71
2023/01/09 09:58:39;;;;;;;5.07;2.67;;;;;7.50;95040.00;;;;8296864;28;20198;-71
2023/01/09 10:03:13;;;;;;;16.03;2.50;;;;;7.50;95022.00;;;;8302649;28;20210;-71
2023/01/09 10:12:58;;;;;;;6.03;1.80;;;;;7.50;95033.00;;;;8301156;28;20249;-71
2023/01/09 10:17:38;;;;;;;6.87;1.47;;;;;7.70;95025.00;;;;8301132;28;20201;-71
2023/01/09 10:22:20;;;;;;;6.03;1.57;;;;;7.80;95029.00;;;;8302458;28;20632;-71
2023/01/09 10:26:52;;;;;;;2.43;1.33;;;;;7.80;95053.00;;;;8302150;28;20198;-71
2023/01/09 10:31:32;;;;;;;9.13;3.47;;;;;7.80;95054.00;;;;8301349;28;20232;-72
2023/01/09 10:36:12;;;;;;;6.97;1.50;;;;;7.80;95048.00;;;;8301263;28;20217;-72
2023/01/09 10:40:45;;;;;;;5.80;1.30;;;;;7.90;95052.00;;;;8301152;28;20285;-72
2023/01/09 10:45:16;;;;;;;7.10;2.63;;;;;7.90;95067.00;;;;8299818;28;20620;-72
2023/01/09 10:49:59;;;;;;;13.80;12.23;;;;;7.90;95057.00;;;;8299070;28;20222;-72
2023/01/09 10:54:33;;;;;;;5.53;1.80;;;;;7.90;95056.00;;;;8295921;28;20271;-72
2023/01/09 10:59:10;;;;;;;3.70;1.40;;;;;7.90;95051.00;;;;8294982;28;20232;-72
2023/01/09 11:03:48;;;;;;;1.23;1.20;;;;;7.90;95045.00;;;;8296085;28;20535;-72
2023/01/09 11:08:29;;;;;;;2.20;1.37;;;;;8.00;95036.00;;;;8295511;28;20202;-72
2023/01/09 11:13:53;;;;;;;2.73;1.30;;;;;8.10;95046.00;;;;8294164;28;20858;-72
2023/01/09 11:18:33;;;;;;;3.13;1.43;;;;;8.10;95053.00;;;;8293461;28;20208;-72
2023/01/09 11:23:22;;;;;;;5.30;1.83;;;;;7.90;95055.00;;;;8294595;28;20202;-71
2023/01/09 11:27:44;;;;;;;1.90;1.60;;;;;7.90;95048.00;;;;8293426;28;20198;-71
2023/01/09 11:32:22;;;;;;;4.43;1.57;;;;;8.00;95056.00;;;;8295402;28;20221;-72
2023/01/09 11:37:06;;;;;;;6.70;3.00;;;;;8.10;95060.00;;;;8295121;28;20197;-71
2023/01/09 11:41:35;;;;;;;6.13;1.40;;;;;8.10;95059.00;;;;8295616;28;20190;-72
2023/01/09 11:46:10;;;;;;;3.27;1.23;;;;;8.00;95062.00;;;;8294898;28;20297;-72
2023/01/09 11:50:53;;;;;;;2.97;1.07;;;;;8.00;95055.00;;;;8294562;28;20611;-72
2023/01/09 11:55:27;;;;;;;0.90;0.90;;;;;8.10;95039.00;;;;8295194;28;20517;-72
2023/01/09 12:00:13;;;;;;;1.37;1.27;;;;;7.90;95053.00;;;;8294776;28;20193;-71
2023/01/09 12:04:38;;;;;;;1.10;1.10;;;;;7.90;95059.00;;;;8292519;28;20613;-72
2023/01/09 12:09:16;;;;;;;1.43;0.90;;;;;7.90;95060.00;;;;8294999;28;20230;-70
2023/01/09 12:13:55;;;;;;;2.63;1.00;;;;;8.00;95046.00;;;;8294223;28;20630;-70
2023/01/09 12:18:37;;;;;;;2.57;1.10;;;;;8.10;95054.00;;;;8293780;28;20264;-70
2023/01/09 12:23:10;;;;;;;2.40;1.20;;;;;8.10;95056.00;;;;8296510;28;20198;-70
2023/01/09 12:27:43;;;;;;;3.93;1.20;;;;;8.10;95060.00;;;;8293910;28;20221;-70
2023/01/09 12:32:21;;;;;;;1.53;1.30;;;;;8.10;95071.00;;;;8292656;28;20236;-70
2023/01/09 12:36:38;;;;;;;3.90;1.30;;;;;8.00;95058.00;;;;8295264;28;20210;-70
2023/01/09 12:41:31;;;;;;;1.83;1.20;;;;;8.00;95057.00;;;;8294095;28;20198;-72
2023/01/09 12:45:42;;;;;;;1.33;1.20;;;;;8.00;95052.00;;;;8293653;28;20236;-72
2023/01/09 12:49:53;;;;;;;3.10;1.33;;;;;8.10;95063.00;;;;8293805;28;20237;-72
2023/01/09 12:54:26;;;;;;;4.23;1.23;;;;;8.20;95060.00;;;;8293410;28;20240;-72
2023/01/09 12:58:37;;;;;;;5.70;1.33;;;;;8.50;95064.00;;;;8293679;28;20251;-72
2023/01/09 13:03:10;;;;;;;1.60;1.30;;;;;8.60;95069.00;;;;8293681;28;20221;-72
2023/01/09 13:12:51;;;;;;;2.73;1.30;;;;;8.60;95068.00;;;;8294194;28;20222;-72
2023/01/09 13:16:56;;;;;;;2.10;1.30;;;;;8.60;95077.00;;;;8298962;28;20188;-72
2023/01/09 13:21:04;;;;;;;1.30;1.30;;;;;8.60;95073.00;;;;8299965;28;20567;-72
2023/01/09 13:25:37;;;;;;;5.33;1.60;;;;;8.50;95070.00;;;;8298044;28;20190;-72
2023/01/09 13:29:50;;;;;;;2.20;1.20;;;;;8.40;95071.00;;;;8298766;28;20280;-72
2023/01/09 13:34:20;;;;;;;4.30;1.60;;;;;8.50;95071.00;;;;8299456;28;20584;-72
2023/01/09 13:38:58;;;;;;;2.43;1.40;;;;;8.50;95068.00;;;;8299367;28;20197;-71
2023/01/09 13:43:08;;;;;;;3.13;1.23;;;;;8.40;95074.00;;;;8298768;28;20285;-72
2023/01/09 13:47:42;;;;;;;1.23;1.10;;;;;8.20;95085.00;;;;8298230;28;20202;-72
2023/01/09 13:52:17;;;;;;;4.93;1.50;;;;;8.20;95081.00;;;;8297416;28;20253;-72
2023/01/09 13:56:21;;;;;;;4.73;1.50;;;;;8.20;95080.00;;;;8298796;28;20552;-72
2023/01/09 14:00:58;;;;;;;2.30;1.50;;;;;8.30;95076.00;;;;8300240;28;20237;-72
2023/01/09 14:05:39;;;;;;;1.60;1.30;;;;;8.30;95087.00;;;;8298827;28;20222;-72
2023/01/09 14:10:16;;;;;;;2.90;1.20;;;;;8.30;95091.00;;;;8302746;28;20280;-72
2023/01/09 14:14:53;;;;;;;2.33;1.23;;;;;8.30;95087.00;;;;8299078;28;20198;-70
2023/01/09 14:19:32;;;;;;;4.10;1.50;;;;;8.30;95088.00;;;;8301135;28;20210;-70
2023/01/09 14:24:02;;;;;;;5.20;1.30;;;;;8.30;95084.00;;;;8298027;28;20198;-70
2023/01/09 14:28:40;;;;;;;3.90;1.30;;;;;8.20;95094.00;;;;8301301;28;20194;-70
2023/01/09 14:33:24;;;;;;;3.77;1.60;;;;;8.10;95089.00;;;;8299072;28;20724;-70
2023/01/09 14:38:16;;;;;;;3.23;1.40;;;;;8.00;95097.00;;;;8295702;28;20240;-71
2023/01/09 14:42:44;;;;;;;2.30;1.57;;;;;7.80;95093.00;;;;8200659;29;20207;-71
2023/01/09 14:46:52;;;;;;;6.13;1.50;;;;;7.70;95096.00;;;;8200941;29;20207;-71
2023/01/09 14:50:58;;;;;;;3.20;1.60;;;;;7.70;95111.00;;;;8276352;28;20226;-71
2023/01/09 14:55:39;;;;;;;4.80;1.20;;;;;7.70;95115.00;;;;8301206;28;20647;-70
2023/01/09 14:59:56;;;;;;;8.90;1.27;;;;;7.80;95116.00;;;;8301703;28;20248;-70
2023/01/09 15:04:03;;;;;;;3.20;1.63;;;;;7.90;95118.00;;;;8299311;28;20626;-71
2023/01/09 15:08:10;;;;;;;2.33;1.50;;;;;8.00;95120.00;;;;8300828;28;20583;-70
2023/01/09 15:12:22;;;;;;;4.15;2.08;;;;;8.10;95121.00;;;;8300266;28;20601;-70
2023/01/09 15:16:29;;;;;;;5.07;1.80;;;;;8.00;95123.00;;;;8300909;28;20260;-70
2023/01/09 15:21:03;;;;;;;4.97;1.90;;;;;7.90;95131.00;;;;8300864;28;20202;-70
2023/01/09 15:25:23;;;;;;;4.63;2.30;;;;;7.80;95131.00;;;;8299423;28;20233;-70
2023/01/09 15:29:39;;;;;;;4.93;1.70;;;;;7.70;95140.00;;;;8300316;28;20214;-70
2023/01/09 15:34:20;;;;;;;2.40;1.67;;;;;7.50;95141.00;;;;8299469;28;20240;-70
2023/01/09 15:38:51;;;;;;;6.07;2.17;;;;;7.40;95144.00;;;;8299195;28;20202;-70
2023/01/09 15:42:58;;;;;;;4.97;3.40;;;;;7.20;95154.00;;;;8297249;28;20193;-70
2023/01/09 15:47:03;;;;;;;2.77;1.70;;;;;7.10;95141.00;;;;8297986;28;20182;-70
2023/01/09 15:51:44;;;;;;;4.27;2.73;;;;;7.00;95158.00;;;;8295917;28;20268;-70
2023/01/09 15:56:05;;;;;;;4.40;2.77;;;;;6.90;95158.00;;;;8295849;28;20245;-70
2023/01/09 16:00:34;;;;;;;6.73;2.30;;;;;6.80;95156.00;;;;8298644;28;20198;-70
2023/01/09 16:05:06;;;;;;;6.17;2.50;;;;;6.80;95175.00;;;;8299331;28;20666;-70
2023/01/09 16:09:17;;;;;;;5.40;2.60;;;;;6.90;95176.00;;;;8299131;28;20214;-71
2023/01/09 16:13:26;;;;;;;4.30;1.97;;;;;6.90;95184.00;;;;8299240;28;20320;-71
2023/01/09 16:18:07;;;;;;;2.60;2.10;;;;;7.00;95185.00;;;;8298519;28;20241;-71
2023/01/09 16:22:51;;;;;;;7.77;2.80;;;;;7.00;95185.00;;;;8294582;28;20194;-71
2023/01/09 16:27:26;;;;;;;4.97;2.43;;;;;7.00;95190.00;;;;8298341;28;20186;-71
2023/01/09 16:31:31;;;;;;;5.73;2.37;;;;;7.00;95205.00;;;;8297234;28;20655;-70
2023/01/09 16:35:38;;;;;;;3.90;1.87;;;;;6.90;95219.00;;;;8299190;28;20193;-69
2023/01/09 16:40:24;;;;;;;5.60;2.20;;;;;6.70;95224.00;;;;8297814;28;20206;-71
2023/01/09 16:44:54;;;;;;;3.10;1.50;;;;;6.50;95216.00;;;;8298547;28;20289;-68
2023/01/09 16:49:28;;;;;;;7.23;2.43;;;;;6.30;95223.00;;;;8301050;28;20198;-68
2023/01/09 16:53:36;;;;;;;6.40;1.83;;;;;6.30;95221.00;;;;8303999;28;20532;-68
2023/01/09 16:58:09;;;;;;;4.67;2.00;;;;;6.20;95213.00;;;;8304246;28;20252;-68
2023/01/09 17:02:44;;;;;;;1.40;1.30;;;;;6.20;95216.00;;;;8304819;28;20222;-68
2023/01/09 17:06:51;;;;;;;3.60;1.70;;;;;6.10;95210.00;;;;8300404;28;20233;-68
2023/01/09 17:11:28;;;;;;;3.93;1.33;;;;;6.00;95213.00;;;;8299490;28;20332;-68
2023/01/09 17:16:00;;;;;;;1.40;1.30;;;;;6.00;95211.00;;;;8299512;28;20233;-68
2023/01/09 17:20:36;;;;;;;1.33;1.20;;;;;5.90;95224.00;;;;8297788;28;20217;-69
2023/01/09 17:29:37;;;;;;;1.70;1.60;;;;;5.80;95242.00;;;;8299146;28;20231;-68
2023/01/09 17:34:15;;;;;;;4.47;1.93;;;;;5.90;95253.00;;;;8299460;28;20222;-68
2023/01/09 17:38:18;;;;;;;4.20;2.10;;;;;5.90;95252.00;;;;8299751;28;20257;-68
2023/01/09 17:42:25;;;;;;;3.80;2.23;;;;;5.80;95248.00;;;;8297540;28;20221;-69
2023/01/09 17:46:31;;;;;;;3.97;2.20;;;;;5.70;95260.00;;;;8298044;28;20233;-68
2023/01/09 17:51:05;;;;;;;3.77;1.90;;;;;5.60;95256.00;;;;8298792;28;20226;-70
2023/01/09 17:55:14;;;;;;;3.07;1.80;;;;;5.60;95256.00;;;;8298789;28;20237;-69
2023/01/09 17:59:20;;;;;;;4.73;1.83;;;;;5.60;95270.00;;;;8298092;28;20229;-69
2023/01/09 18:03:25;;;;;;;3.60;1.93;;;;;5.60;95284.00;;;;8297694;28;20272;-69
2023/01/09 18:07:31;;;;;;;5.03;2.27;;;;;5.60;95277.00;;;;8298253;28;20209;-69
2023/01/09 18:11:35;;;;;;;4.30;2.97;;;;;5.60;95276.00;;;;8297950;28;20222;-69
2023/01/09 18:15:43;;;;;;;4.30;2.90;;;;;5.50;95280.00;;;;8298351;28;20285;-69
2023/01/09 18:19:48;;;;;;;9.30;3.30;;;;;5.50;95288.00;;;;8297202;28;20195;-69
2023/01/09 18:23:52;;;;;;;4.77;2.83;;;;;5.50;95307.00;;;;8297837;28;20194;-69
2023/01/09 18:27:55;;;;;;;4.37;2.90;;;;;5.50;95314.00;;;;8296729;28;20274;-69
2023/01/09 18:32:33;;;;;;;5.87;2.60;;;;;5.50;95326.00;;;;8297326;28;20812;-69
2023/01/09 18:36:38;;;;;;;5.53;2.70;;;;;5.60;95333.00;;;;8297598;28;20198;-69
2023/01/09 18:40:45;;;;;;;6.07;2.87;;;;;5.50;95335.00;;;;8297783;28;20769;-69
2023/01/09 18:44:48;;;;;;;4.73;2.37;;;;;5.40;95333.00;;;;8296790;28;20183;-69
2023/01/09 18:49:26;;;;;;;9.90;2.27;;;;;5.30;95346.00;;;;8295411;28;20198;-69
2023/01/09 18:54:01;;;;;;;5.40;2.20;;;;;5.20;95338.00;;;;8294668;28;20229;-69
2023/01/09 18:58:04;;;;;;;3.37;1.97;;;;;5.20;95348.00;;;;8296416;28;20202;-69
2023/01/09 19:02:41;;;;;;;1.93;1.53;;;;;5.30;95363.00;;;;8296515;28;20218;-69
2023/01/09 19:06:46;;;;;;;5.20;1.80;;;;;5.40;95357.00;;;;8296551;28;20718;-70
2023/01/09 19:10:58;;;;;;;3.53;1.50;;;;;5.30;95367.00;;;;8295805;28;20511;-71
2023/01/09 19:15:35;;;;;;;1.97;1.70;;;;;5.20;95374.00;;;;8295221;28;20204;-70
2023/01/09 19:19:40;;;;;;;4.37;1.70;;;;;5.30;95366.00;;;;8296229;28;20194;-70
2023/01/09 19:23:45;;;;;;;1.77;1.53;;;;;5.30;95370.00;;;;8295026;28;20202;-69
2023/01/09 19:28:19;;;;;;;4.23;1.60;;;;;5.20;95373.00;;;;8295904;28;20194;-69
2023/01/09 19:32:53;;;;;;;2.40;2.20;;;;;5.10;95382.00;;;;8294976;28;20257;-68
2023/01/09 19:37:33;;;;;;;3.47;1.80;;;;;5.00;95396.00;;;;8296001;28;20206;-69
2023/01/09 19:42:09;;;;;;;6.17;1.67;;;;;4.90;95399.00;;;;8300225;28;20268;-69
2023/01/09 19:46:42;;;;;;;2.40;1.57;;;;;4.90;95399.00;;;;8299458;28;20240;-68
2023/01/09 19:51:20;;;;;;;2.63;1.30;;;;;4.90;95396.00;;;;8299854;28;20317;-69
2023/01/09 19:55:54;;;;;;;2.17;1.47;;;;;5.00;95409.00;;;;8299837;28;20284;-68
2023/01/09 20:00:32;;;;;;;2.50;1.47;;;;;5.10;95420.00;;;;8297972;28;20194;-68
2023/01/09 20:05:07;;;;;;;5.53;1.50;;;;;5.10;95414.00;;;;8297691;28;20264;-69
2023/01/09 20:09:50;;;;;;;2.80;1.40;;;;;5.10;95430.00;;;;8299845;28;20206;-69
2023/01/09 20:14:21;;;;;;;2.40;1.27;;;;;5.10;95435.00;;;;8299036;28;20548;-69
2023/01/09 20:18:58;;;;;;;1.57;1.47;;;;;5.20;95433.00;;;;8299090;28;20284;-69
2023/01/09 20:23:36;;;;;;;3.20;1.50;;;;;5.30;95443.00;;;;8298661;28;20198;-69
2023/01/09 20:28:11;;;;;;;1.87;1.50;;;;;5.30;95452.00;;;;8297555;28;20245;-69
2023/01/09 20:32:49;;;;;;;2.47;1.43;;;;;5.30;95464.00;;;;8298603;28;20225;-69
2023/01/09 20:37:25;;;;;;;1.50;1.40;;;;;5.40;95472.00;;;;8298886;28;20631;-69
2023/01/09 20:42:03;;;;;;;2.97;1.60;;;;;5.50;95479.00;;;;8299598;28;20198;-69
2023/01/09 20:46:40;;;;;;;3.50;1.57;;;;;5.50;95488.00;;;;8298740;28;20198;-69
2023/01/09 20:51:14;;;;;;;1.40;1.30;;;;;5.50;95499.00;;;;8299103;28;20241;-69
2023/01/09 20:55:58;;;;;;;3.77;1.73;;;;;5.60;95501.00;;;;8298053;28;20512;-70
2023/01/09 21:00:05;;;;;;;3.20;1.60;;;;;5.60;95513.00;;;;8298126;28;20255;-72
2023/01/09 21:04:36;;;;;;;3.83;1.80;;;;;5.60;95522.00;;;;8298145;28;20296;-70
2023/01/09 21:13:37;;;;;;;1.77;1.60;;;;;5.70;95523.00;;;;8298242;28;20744;-70
2023/01/09 21:18:13;;;;;;;1.70;1.60;;;;;5.70;95525.00;;;;8297624;28;20198;-70
2023/01/09 21:22:48;;;;;;;1.80;1.70;;;;;5.70;95531.00;;;;8280990;28;20202;-70
2023/01/09 21:26:57;;;;;;;2.10;1.97;;;;;5.70;95529.00;;;;8297647;28;20583;-70
2023/01/09 21:31:33;;;;;;;1.70;1.60;;;;;5.70;95528.00;;;;8297667;28;20182;-71
2023/01/09 21:36:16;;;;;;;1.90;1.80;;;;;5.70;95532.00;;;;8301898;28;20208;-70
2023/01/09 21:40:24;;;;;;;1.80;1.70;;;;;5.70;95534.00;;;;8301465;28;20190;-71
2023/01/09 21:49:18;;;;;;;2.50;2.30;;;;;5.70;95542.00;;;;8303815;28;20194;-71
2023/01/09 21:53:23;;;;;;;4.53;2.00;;;;;5.80;95543.00;;;;8302180;28;20618;-71
2023/01/09 21:57:26;;;;;;;4.13;2.00;;;;;5.80;95547.00;;;;8302674;28;20516;-71
2023/01/09 22:01:29;;;;;;;3.60;2.10;;;;;5.80;95551.00;;;;8301424;28;20190;-71
2023/01/09 22:05:32;;;;;;;5.23;2.00;;;;;5.80;95560.00;;;;8301663;28;20225;-71
2023/01/09 22:09:37;;;;;;;3.07;1.87;;;;;5.80;95566.00;;;;8300522;28;20206;-71
2023/01/09 22:14:12;;;;;;;2.40;2.00;;;;;5.70;95567.00;;;;8303139;28;20280;-71
2023/01/09 22:18:15;;;;;;;2.97;2.07;;;;;5.80;95576.00;;;;8302080;28;20636;-71
2023/01/09 22:22:20;;;;;;;2.80;2.10;;;;;5.80;95580.00;;;;8303117;28;20198;-71
2023/01/09 22:26:25;;;;;;;2.60;2.20;;;;;5.80;95584.00;;;;8302236;28;20198;-71
2023/01/09 22:30:28;;;;;;;4.60;2.30;;;;;5.80;95591.00;;;;8301484;28;20254;-70
2023/01/09 22:34:34;;;;;;;2.53;2.20;;;;;5.80;95591.00;;;;8302702;28;20257;-71
2023/01/09 22:38:37;;;;;;;3.07;2.03;;;;;5.80;95604.00;;;;8301500;28;20201;-71